sensor_id;sensor_type;location;lat;lon;timestamp;P1;durP1;ratioP1;P2;durP2;ratioP2
39074;SDS011;24826;52.070;20.970;2023-02-01T00:00:35;8.00;;;4.35;;
39074;SDS011;24826;52.070;20.970;2023-02-01T00:03:25;6.93;;;4.55;;
39074;SDS011;24826;52.070;20.970;2023-02-01T00:06:10;7.60;;;4.07;;
39074;SDS011;24826;52.070;20.970;2023-02-01T00:08:55;7.20;;;3.88;;
39074;SDS011;24826;52.070;20.970;2023-02-01T00:11:40;7.97;;;4.13;;
39074;SDS011;24826;52.070;20.970;2023-02-01T00:14:24;7.30;;;4.00;;
39074;SDS011;24826;52.070;20.970;2023-02-01T00:17:09;6.15;;;3.88;;
39074;SDS011;24826;52.070;20.970;2023-02-01T00:19:54;5.70;;;3.55;;
39074;SDS011;24826;52.070;20.970;2023-02-01T00:22:38;7.38;;;4.15;;
39074;SDS011;24826;52.070;20.970;2023-02-01T00:25:23;7.93;;;3.80;;
39074;SDS011;24826;52.070;20.970;2023-02-01T00:28:07;6.80;;;3.85;;
39074;SDS011;24826;52.070;20.970;2023-02-01T00:30:58;5.57;;;3.47;;
39074;SDS011;24826;52.070;20.970;2023-02-01T00:33:47;5.60;;;3.67;;
39074;SDS011;24826;52.070;20.970;2023-02-01T00:36:32;6.20;;;3.78;;
39074;SDS011;24826;52.070;20.970;2023-02-01T00:39:17;7.15;;;4.20;;
39074;SDS011;24826;52.070;20.970;2023-02-01T00:42:01;5.82;;;3.65;;
39074;SDS011;24826;52.070;20.970;2023-02-01T00:44:46;7.70;;;3.78;;
39074;SDS011;24826;52.070;20.970;2023-02-01T00:47:30;6.60;;;3.78;;
39074;SDS011;24826;52.070;20.970;2023-02-01T00:50:15;6.75;;;3.03;;
39074;SDS011;24826;52.070;20.970;2023-02-01T00:53:00;7.78;;;3.58;;
39074;SDS011;24826;52.070;20.970;2023-02-01T00:55:45;6.50;;;3.55;;
39074;SDS011;24826;52.070;20.970;2023-02-01T00:58:30;6.07;;;3.17;;
39074;SDS011;24826;52.070;20.970;2023-02-01T01:01:17;6.18;;;2.30;;
39074;SDS011;24826;52.070;20.970;2023-02-01T01:04:03;6.90;;;2.42;;
39074;SDS011;24826;52.070;20.970;2023-02-01T01:06:48;6.80;;;2.13;;
39074;SDS011;24826;52.070;20.970;2023-02-01T01:09:32;6.68;;;2.80;;
39074;SDS011;24826;52.070;20.970;2023-02-01T01:12:17;4.38;;;1.73;;
39074;SDS011;24826;52.070;20.970;2023-02-01T01:15:03;3.92;;;1.92;;
39074;SDS011;24826;52.070;20.970;2023-02-01T01:17:48;5.07;;;1.70;;
39074;SDS011;24826;52.070;20.970;2023-02-01T01:20:36;6.25;;;1.80;;
39074;SDS011;24826;52.070;20.970;2023-02-01T01:23:22;7.45;;;2.35;;
39074;SDS011;24826;52.070;20.970;2023-02-01T01:26:08;6.32;;;2.67;;
39074;SDS011;24826;52.070;20.970;2023-02-01T01:28:57;3.80;;;1.73;;
39074;SDS011;24826;52.070;20.970;2023-02-01T01:31:43;5.32;;;1.95;;
39074;SDS011;24826;52.070;20.970;2023-02-01T01:34:27;5.57;;;1.90;;
39074;SDS011;24826;52.070;20.970;2023-02-01T01:37:12;5.10;;;1.67;;
39074;SDS011;24826;52.070;20.970;2023-02-01T01:39:56;7.10;;;2.00;;
39074;SDS011;24826;52.070;20.970;2023-02-01T01:42:42;6.90;;;1.83;;
39074;SDS011;24826;52.070;20.970;2023-02-01T01:45:29;7.65;;;1.98;;
39074;SDS011;24826;52.070;20.970;2023-02-01T01:48:18;8.55;;;1.95;;
39074;SDS011;24826;52.070;20.970;2023-02-01T01:51:14;6.85;;;1.92;;
39074;SDS011;24826;52.070;20.970;2023-02-01T01:56:57;8.43;;;1.88;;
39074;SDS011;24826;52.070;20.970;2023-02-01T01:59:48;6.97;;;2.10;;
39074;SDS011;24826;52.070;20.970;2023-02-01T02:02:38;8.25;;;2.25;;
39074;SDS011;24826;52.070;20.970;2023-02-01T02:05:25;4.63;;;1.90;;
39074;SDS011;24826;52.070;20.970;2023-02-01T02:08:11;7.97;;;1.92;;
39074;SDS011;24826;52.070;20.970;2023-02-01T02:10:55;7.35;;;2.30;;
39074;SDS011;24826;52.070;20.970;2023-02-01T02:16:43;8.52;;;2.10;;
39074;SDS011;24826;52.070;20.970;2023-02-01T02:19:56;7.72;;;2.30;;
39074;SDS011;24826;52.070;20.970;2023-02-01T02:29:08;8.88;;;2.40;;
39074;SDS011;24826;52.070;20.970;2023-02-01T02:38:58;8.98;;;2.20;;
39074;SDS011;24826;52.070;20.970;2023-02-01T02:42:10;17.10;;;2.60;;
39074;SDS011;24826;52.070;20.970;2023-02-01T02:48:26;9.88;;;2.17;;
39074;SDS011;24826;52.070;20.970;2023-02-01T02:51:20;10.85;;;2.00;;
39074;SDS011;24826;52.070;20.970;2023-02-01T02:54:32;10.27;;;2.00;;
39074;SDS011;24826;52.070;20.970;2023-02-01T02:57:36;8.65;;;2.17;;
39074;SDS011;24826;52.070;20.970;2023-02-01T03:00:41;8.90;;;2.13;;
39074;SDS011;24826;52.070;20.970;2023-02-01T03:03:46;8.77;;;1.90;;
39074;SDS011;24826;52.070;20.970;2023-02-01T03:06:52;11.90;;;2.20;;
39074;SDS011;24826;52.070;20.970;2023-02-01T03:09:38;9.02;;;2.08;;
39074;SDS011;24826;52.070;20.970;2023-02-01T03:12:25;8.85;;;1.85;;
39074;SDS011;24826;52.070;20.970;2023-02-01T03:21:53;9.38;;;1.95;;
39074;SDS011;24826;52.070;20.970;2023-02-01T03:24:42;8.25;;;2.10;;
39074;SDS011;24826;52.070;20.970;2023-02-01T03:27:32;8.18;;;2.47;;
39074;SDS011;24826;52.070;20.970;2023-02-01T03:30:21;15.80;;;2.60;;
39074;SDS011;24826;52.070;20.970;2023-02-01T03:33:12;10.88;;;2.53;;
39074;SDS011;24826;52.070;20.970;2023-02-01T03:39:10;9.23;;;3.50;;
39074;SDS011;24826;52.070;20.970;2023-02-01T03:42:00;10.25;;;2.45;;
39074;SDS011;24826;52.070;20.970;2023-02-01T03:44:58;11.32;;;2.17;;
39074;SDS011;24826;52.070;20.970;2023-02-01T03:47:48;12.32;;;2.60;;
39074;SDS011;24826;52.070;20.970;2023-02-01T03:50:36;9.15;;;2.28;;
39074;SDS011;24826;52.070;20.970;2023-02-01T03:53:24;12.63;;;2.40;;
39074;SDS011;24826;52.070;20.970;2023-02-01T03:56:10;12.75;;;2.55;;
39074;SDS011;24826;52.070;20.970;2023-02-01T03:58:55;11.38;;;2.50;;
39074;SDS011;24826;52.070;20.970;2023-02-01T04:01:43;11.00;;;3.03;;
39074;SDS011;24826;52.070;20.970;2023-02-01T04:04:27;10.48;;;2.70;;
39074;SDS011;24826;52.070;20.970;2023-02-01T04:07:12;9.63;;;1.80;;
39074;SDS011;24826;52.070;20.970;2023-02-01T04:09:56;8.27;;;2.20;;
39074;SDS011;24826;52.070;20.970;2023-02-01T04:12:40;11.52;;;2.20;;
39074;SDS011;24826;52.070;20.970;2023-02-01T04:15:25;10.90;;;2.63;;
39074;SDS011;24826;52.070;20.970;2023-02-01T04:18:09;12.68;;;2.80;;
39074;SDS011;24826;52.070;20.970;2023-02-01T04:20:53;13.93;;;2.13;;
39074;SDS011;24826;52.070;20.970;2023-02-01T04:23:38;16.02;;;2.05;;
39074;SDS011;24826;52.070;20.970;2023-02-01T04:26:22;11.15;;;2.63;;
39074;SDS011;24826;52.070;20.970;2023-02-01T04:29:08;11.25;;;2.17;;
39074;SDS011;24826;52.070;20.970;2023-02-01T04:31:53;13.48;;;2.28;;
39074;SDS011;24826;52.070;20.970;2023-02-01T04:34:38;9.07;;;2.50;;
39074;SDS011;24826;52.070;20.970;2023-02-01T04:37:22;12.20;;;2.35;;
39074;SDS011;24826;52.070;20.970;2023-02-01T04:40:06;8.75;;;2.40;;
39074;SDS011;24826;52.070;20.970;2023-02-01T04:42:51;5.90;;;1.63;;
39074;SDS011;24826;52.070;20.970;2023-02-01T04:45:35;11.50;;;2.13;;
39074;SDS011;24826;52.070;20.970;2023-02-01T04:48:20;8.80;;;1.95;;
39074;SDS011;24826;52.070;20.970;2023-02-01T04:51:04;13.25;;;2.60;;
39074;SDS011;24826;52.070;20.970;2023-02-01T04:53:49;9.35;;;2.15;;
39074;SDS011;24826;52.070;20.970;2023-02-01T04:56:34;14.02;;;2.15;;
39074;SDS011;24826;52.070;20.970;2023-02-01T04:59:18;8.60;;;1.85;;
39074;SDS011;24826;52.070;20.970;2023-02-01T05:02:03;11.23;;;2.25;;
39074;SDS011;24826;52.070;20.970;2023-02-01T05:04:47;8.80;;;2.20;;
39074;SDS011;24826;52.070;20.970;2023-02-01T05:07:31;10.18;;;2.20;;
39074;SDS011;24826;52.070;20.970;2023-02-01T05:10:15;11.20;;;2.47;;
39074;SDS011;24826;52.070;20.970;2023-02-01T05:13:00;12.45;;;2.70;;
39074;SDS011;24826;52.070;20.970;2023-02-01T05:16:03;9.32;;;2.35;;
39074;SDS011;24826;52.070;20.970;2023-02-01T05:18:48;9.43;;;2.03;;
39074;SDS011;24826;52.070;20.970;2023-02-01T05:21:32;8.10;;;2.22;;
39074;SDS011;24826;52.070;20.970;2023-02-01T05:24:17;8.27;;;2.25;;
39074;SDS011;24826;52.070;20.970;2023-02-01T05:27:04;8.40;;;2.47;;
39074;SDS011;24826;52.070;20.970;2023-02-01T05:29:49;10.23;;;2.40;;
39074;SDS011;24826;52.070;20.970;2023-02-01T05:32:33;16.00;;;2.85;;
39074;SDS011;24826;52.070;20.970;2023-02-01T05:35:18;11.23;;;2.75;;
39074;SDS011;24826;52.070;20.970;2023-02-01T05:38:03;13.25;;;1.77;;
39074;SDS011;24826;52.070;20.970;2023-02-01T05:40:47;12.35;;;2.88;;
39074;SDS011;24826;52.070;20.970;2023-02-01T05:43:33;12.13;;;2.83;;
39074;SDS011;24826;52.070;20.970;2023-02-01T05:46:18;11.40;;;2.03;;
39074;SDS011;24826;52.070;20.970;2023-02-01T05:49:02;8.90;;;2.20;;
39074;SDS011;24826;52.070;20.970;2023-02-01T05:51:47;9.45;;;2.13;;
39074;SDS011;24826;52.070;20.970;2023-02-01T05:54:31;13.70;;;2.58;;
39074;SDS011;24826;52.070;20.970;2023-02-01T05:57:16;11.05;;;2.88;;
39074;SDS011;24826;52.070;20.970;2023-02-01T06:00:00;9.52;;;2.63;;
39074;SDS011;24826;52.070;20.970;2023-02-01T06:02:45;13.65;;;2.95;;
39074;SDS011;24826;52.070;20.970;2023-02-01T06:05:30;13.65;;;2.50;;
39074;SDS011;24826;52.070;20.970;2023-02-01T06:08:14;11.65;;;2.70;;
39074;SDS011;24826;52.070;20.970;2023-02-01T06:11:02;8.95;;;2.75;;
39074;SDS011;24826;52.070;20.970;2023-02-01T06:13:48;15.93;;;2.60;;
39074;SDS011;24826;52.070;20.970;2023-02-01T06:16:32;8.20;;;2.42;;
39074;SDS011;24826;52.070;20.970;2023-02-01T06:19:16;10.77;;;2.10;;
39074;SDS011;24826;52.070;20.970;2023-02-01T06:22:00;14.05;;;2.50;;
39074;SDS011;24826;52.070;20.970;2023-02-01T06:24:45;10.98;;;2.63;;
39074;SDS011;24826;52.070;20.970;2023-02-01T06:27:30;11.75;;;2.70;;
39074;SDS011;24826;52.070;20.970;2023-02-01T06:30:15;13.95;;;3.25;;
39074;SDS011;24826;52.070;20.970;2023-02-01T06:32:59;11.75;;;3.10;;
39074;SDS011;24826;52.070;20.970;2023-02-01T06:35:44;10.82;;;2.70;;
39074;SDS011;24826;52.070;20.970;2023-02-01T06:38:29;13.73;;;3.33;;
39074;SDS011;24826;52.070;20.970;2023-02-01T06:41:14;8.90;;;2.42;;
39074;SDS011;24826;52.070;20.970;2023-02-01T06:43:58;17.60;;;3.80;;
39074;SDS011;24826;52.070;20.970;2023-02-01T06:46:42;13.40;;;3.53;;
39074;SDS011;24826;52.070;20.970;2023-02-01T06:49:27;14.48;;;4.10;;
39074;SDS011;24826;52.070;20.970;2023-02-01T06:52:11;12.55;;;2.92;;
39074;SDS011;24826;52.070;20.970;2023-02-01T06:54:55;9.82;;;2.22;;
39074;SDS011;24826;52.070;20.970;2023-02-01T06:57:40;17.23;;;2.75;;
39074;SDS011;24826;52.070;20.970;2023-02-01T07:00:24;7.25;;;2.42;;
39074;SDS011;24826;52.070;20.970;2023-02-01T07:03:09;10.82;;;1.98;;
39074;SDS011;24826;52.070;20.970;2023-02-01T07:05:56;12.52;;;2.85;;
39074;SDS011;24826;52.070;20.970;2023-02-01T07:08:44;10.68;;;2.22;;
39074;SDS011;24826;52.070;20.970;2023-02-01T07:11:28;10.07;;;2.05;;
39074;SDS011;24826;52.070;20.970;2023-02-01T07:14:13;11.10;;;2.05;;
39074;SDS011;24826;52.070;20.970;2023-02-01T07:16:57;12.90;;;2.22;;
39074;SDS011;24826;52.070;20.970;2023-02-01T07:19:42;14.65;;;2.17;;
39074;SDS011;24826;52.070;20.970;2023-02-01T07:22:27;13.18;;;2.60;;
39074;SDS011;24826;52.070;20.970;2023-02-01T07:25:11;9.45;;;2.00;;
39074;SDS011;24826;52.070;20.970;2023-02-01T07:27:56;15.73;;;2.60;;
39074;SDS011;24826;52.070;20.970;2023-02-01T07:30:41;10.38;;;2.00;;
39074;SDS011;24826;52.070;20.970;2023-02-01T07:33:26;12.00;;;2.70;;
39074;SDS011;24826;52.070;20.970;2023-02-01T07:36:13;12.75;;;3.20;;
39074;SDS011;24826;52.070;20.970;2023-02-01T07:38:59;14.30;;;3.20;;
39074;SDS011;24826;52.070;20.970;2023-02-01T07:41:43;10.40;;;2.38;;
39074;SDS011;24826;52.070;20.970;2023-02-01T07:44:27;15.13;;;2.78;;
39074;SDS011;24826;52.070;20.970;2023-02-01T07:47:12;17.10;;;4.22;;
39074;SDS011;24826;52.070;20.970;2023-02-01T07:49:56;10.38;;;2.28;;
39074;SDS011;24826;52.070;20.970;2023-02-01T07:52:41;10.98;;;2.38;;
39074;SDS011;24826;52.070;20.970;2023-02-01T07:55:26;11.45;;;2.35;;
39074;SDS011;24826;52.070;20.970;2023-02-01T07:58:11;13.65;;;2.63;;
39074;SDS011;24826;52.070;20.970;2023-02-01T08:00:55;10.50;;;2.38;;
39074;SDS011;24826;52.070;20.970;2023-02-01T08:03:59;12.70;;;2.40;;
39074;SDS011;24826;52.070;20.970;2023-02-01T08:06:44;11.88;;;2.60;;
39074;SDS011;24826;52.070;20.970;2023-02-01T08:09:29;12.90;;;2.60;;
39074;SDS011;24826;52.070;20.970;2023-02-01T08:12:14;13.27;;;3.00;;
39074;SDS011;24826;52.070;20.970;2023-02-01T08:14:59;11.82;;;2.95;;
39074;SDS011;24826;52.070;20.970;2023-02-01T08:17:47;13.15;;;2.78;;
39074;SDS011;24826;52.070;20.970;2023-02-01T08:20:33;13.90;;;2.90;;
39074;SDS011;24826;52.070;20.970;2023-02-01T08:23:19;11.02;;;2.70;;
39074;SDS011;24826;52.070;20.970;2023-02-01T08:26:05;7.00;;;2.33;;
39074;SDS011;24826;52.070;20.970;2023-02-01T08:28:57;11.57;;;2.65;;
39074;SDS011;24826;52.070;20.970;2023-02-01T08:34:27;15.95;;;3.10;;
39074;SDS011;24826;52.070;20.970;2023-02-01T08:37:12;9.52;;;2.45;;
39074;SDS011;24826;52.070;20.970;2023-02-01T08:39:57;14.27;;;3.60;;
39074;SDS011;24826;52.070;20.970;2023-02-01T08:42:41;12.07;;;2.85;;
39074;SDS011;24826;52.070;20.970;2023-02-01T08:45:35;15.95;;;3.90;;
39074;SDS011;24826;52.070;20.970;2023-02-01T08:48:19;11.20;;;3.13;;
39074;SDS011;24826;52.070;20.970;2023-02-01T08:51:07;9.77;;;2.55;;
39074;SDS011;24826;52.070;20.970;2023-02-01T08:53:54;12.30;;;2.58;;
39074;SDS011;24826;52.070;20.970;2023-02-01T08:56:38;9.88;;;2.78;;
39074;SDS011;24826;52.070;20.970;2023-02-01T08:59:22;13.80;;;3.30;;
39074;SDS011;24826;52.070;20.970;2023-02-01T09:02:08;11.52;;;2.80;;
39074;SDS011;24826;52.070;20.970;2023-02-01T09:04:57;10.38;;;2.33;;
39074;SDS011;24826;52.070;20.970;2023-02-01T09:07:41;12.15;;;2.60;;
39074;SDS011;24826;52.070;20.970;2023-02-01T09:10:26;11.32;;;2.63;;
39074;SDS011;24826;52.070;20.970;2023-02-01T09:13:10;14.48;;;3.20;;
39074;SDS011;24826;52.070;20.970;2023-02-01T09:15:55;14.05;;;3.97;;
39074;SDS011;24826;52.070;20.970;2023-02-01T09:18:40;13.48;;;3.40;;
39074;SDS011;24826;52.070;20.970;2023-02-01T09:21:24;11.88;;;2.97;;
39074;SDS011;24826;52.070;20.970;2023-02-01T09:24:12;12.40;;;2.92;;
39074;SDS011;24826;52.070;20.970;2023-02-01T09:26:57;12.05;;;3.03;;
39074;SDS011;24826;52.070;20.970;2023-02-01T09:29:41;11.68;;;3.08;;
39074;SDS011;24826;52.070;20.970;2023-02-01T09:32:26;15.18;;;2.90;;
39074;SDS011;24826;52.070;20.970;2023-02-01T09:35:11;10.93;;;2.88;;
39074;SDS011;24826;52.070;20.970;2023-02-01T09:37:55;11.95;;;3.35;;
39074;SDS011;24826;52.070;20.970;2023-02-01T09:40:41;15.18;;;2.67;;
39074;SDS011;24826;52.070;20.970;2023-02-01T09:46:53;13.60;;;3.15;;
39074;SDS011;24826;52.070;20.970;2023-02-01T09:49:45;10.90;;;3.38;;
39074;SDS011;24826;52.070;20.970;2023-02-01T09:52:54;10.93;;;2.80;;
39074;SDS011;24826;52.070;20.970;2023-02-01T09:55:43;12.05;;;2.80;;
39074;SDS011;24826;52.070;20.970;2023-02-01T10:01:19;10.65;;;2.53;;
39074;SDS011;24826;52.070;20.970;2023-02-01T10:04:08;14.55;;;3.30;;
39074;SDS011;24826;52.070;20.970;2023-02-01T10:07:00;9.45;;;2.65;;
39074;SDS011;24826;52.070;20.970;2023-02-01T10:18:41;9.70;;;1.98;;
39074;SDS011;24826;52.070;20.970;2023-02-01T10:24:39;8.63;;;2.25;;
39074;SDS011;24826;52.070;20.970;2023-02-01T10:27:33;10.05;;;2.88;;
39074;SDS011;24826;52.070;20.970;2023-02-01T10:30:24;10.60;;;2.92;;
39074;SDS011;24826;52.070;20.970;2023-02-01T10:33:18;10.77;;;2.22;;
39074;SDS011;24826;52.070;20.970;2023-02-01T10:38:52;10.55;;;2.55;;
39074;SDS011;24826;52.070;20.970;2023-02-01T10:41:38;16.77;;;2.70;;
39074;SDS011;24826;52.070;20.970;2023-02-01T10:44:24;8.27;;;2.35;;
39074;SDS011;24826;52.070;20.970;2023-02-01T10:47:11;7.65;;;2.58;;
39074;SDS011;24826;52.070;20.970;2023-02-01T10:50:02;10.50;;;2.47;;
39074;SDS011;24826;52.070;20.970;2023-02-01T10:56:13;9.45;;;2.97;;
39074;SDS011;24826;52.070;20.970;2023-02-01T10:59:01;16.17;;;2.83;;
39074;SDS011;24826;52.070;20.970;2023-02-01T11:01:47;12.88;;;3.22;;
39074;SDS011;24826;52.070;20.970;2023-02-01T11:04:34;18.05;;;3.25;;
39074;SDS011;24826;52.070;20.970;2023-02-01T11:07:22;18.05;;;2.83;;
39074;SDS011;24826;52.070;20.970;2023-02-01T11:10:10;11.32;;;3.03;;
39074;SDS011;24826;52.070;20.970;2023-02-01T11:13:28;16.13;;;3.25;;
39074;SDS011;24826;52.070;20.970;2023-02-01T11:16:14;14.37;;;3.33;;
39074;SDS011;24826;52.070;20.970;2023-02-01T11:18:59;15.15;;;3.03;;
39074;SDS011;24826;52.070;20.970;2023-02-01T11:21:44;9.55;;;2.67;;
39074;SDS011;24826;52.070;20.970;2023-02-01T11:24:33;13.60;;;2.83;;
39074;SDS011;24826;52.070;20.970;2023-02-01T11:27:20;10.52;;;3.70;;
39074;SDS011;24826;52.070;20.970;2023-02-01T11:30:07;15.23;;;4.72;;
39074;SDS011;24826;52.070;20.970;2023-02-01T11:33:01;13.60;;;3.55;;
39074;SDS011;24826;52.070;20.970;2023-02-01T11:35:49;15.73;;;3.53;;
39074;SDS011;24826;52.070;20.970;2023-02-01T11:38:34;10.85;;;3.10;;
39074;SDS011;24826;52.070;20.970;2023-02-01T11:41:25;10.77;;;3.70;;
39074;SDS011;24826;52.070;20.970;2023-02-01T11:44:19;11.63;;;3.15;;
39074;SDS011;24826;52.070;20.970;2023-02-01T11:50:13;13.02;;;4.07;;
39074;SDS011;24826;52.070;20.970;2023-02-01T11:56:43;15.07;;;3.78;;
39074;SDS011;24826;52.070;20.970;2023-02-01T11:59:58;10.65;;;3.35;;
39074;SDS011;24826;52.070;20.970;2023-02-01T12:06:25;14.07;;;3.25;;
39074;SDS011;24826;52.070;20.970;2023-02-01T12:12:34;16.48;;;3.25;;
39074;SDS011;24826;52.070;20.970;2023-02-01T12:40:38;16.33;;;4.07;;
39074;SDS011;24826;52.070;20.970;2023-02-01T12:43:59;16.98;;;4.78;;
39074;SDS011;24826;52.070;20.970;2023-02-01T12:46:58;22.83;;;4.78;;
39074;SDS011;24826;52.070;20.970;2023-02-01T12:49:53;16.67;;;4.65;;
39074;SDS011;24826;52.070;20.970;2023-02-01T12:52:48;17.38;;;4.55;;
39074;SDS011;24826;52.070;20.970;2023-02-01T12:55:45;13.40;;;4.85;;
39074;SDS011;24826;52.070;20.970;2023-02-01T12:58:44;12.55;;;4.13;;
39074;SDS011;24826;52.070;20.970;2023-02-01T13:01:34;18.10;;;4.55;;
39074;SDS011;24826;52.070;20.970;2023-02-01T13:04:28;14.38;;;4.18;;
39074;SDS011;24826;52.070;20.970;2023-02-01T13:07:29;19.40;;;4.90;;
39074;SDS011;24826;52.070;20.970;2023-02-01T13:13:37;16.13;;;4.77;;
39074;SDS011;24826;52.070;20.970;2023-02-01T13:16:47;9.57;;;3.78;;
39074;SDS011;24826;52.070;20.970;2023-02-01T13:19:43;15.63;;;4.30;;
39074;SDS011;24826;52.070;20.970;2023-02-01T13:22:35;18.52;;;5.13;;
39074;SDS011;24826;52.070;20.970;2023-02-01T13:25:35;14.55;;;4.32;;
39074;SDS011;24826;52.070;20.970;2023-02-01T13:28:27;15.73;;;4.95;;
39074;SDS011;24826;52.070;20.970;2023-02-01T13:40:41;14.13;;;3.78;;
39074;SDS011;24826;52.070;20.970;2023-02-01T13:43:30;16.70;;;4.25;;
39074;SDS011;24826;52.070;20.970;2023-02-01T13:46:15;9.90;;;3.50;;
39074;SDS011;24826;52.070;20.970;2023-02-01T13:49:01;11.50;;;3.15;;
39074;SDS011;24826;52.070;20.970;2023-02-01T13:51:47;12.73;;;3.72;;
39074;SDS011;24826;52.070;20.970;2023-02-01T13:54:38;14.80;;;3.75;;
39074;SDS011;24826;52.070;20.970;2023-02-01T14:00:30;8.68;;;3.63;;
39074;SDS011;24826;52.070;20.970;2023-02-01T14:03:20;12.55;;;3.22;;
39074;SDS011;24826;52.070;20.970;2023-02-01T14:06:14;12.70;;;3.50;;
39074;SDS011;24826;52.070;20.970;2023-02-01T14:09:19;8.32;;;2.95;;
39074;SDS011;24826;52.070;20.970;2023-02-01T14:15:26;12.65;;;3.95;;
39074;SDS011;24826;52.070;20.970;2023-02-01T14:24:21;14.52;;;4.25;;
39074;SDS011;24826;52.070;20.970;2023-02-01T14:29:56;11.15;;;4.25;;
39074;SDS011;24826;52.070;20.970;2023-02-01T14:32:43;10.20;;;4.07;;
39074;SDS011;24826;52.070;20.970;2023-02-01T14:35:30;11.75;;;3.92;;
39074;SDS011;24826;52.070;20.970;2023-02-01T14:38:15;15.02;;;4.90;;
39074;SDS011;24826;52.070;20.970;2023-02-01T14:41:13;9.98;;;3.75;;
39074;SDS011;24826;52.070;20.970;2023-02-01T14:52:42;9.38;;;2.80;;
39074;SDS011;24826;52.070;20.970;2023-02-01T14:55:37;8.27;;;2.78;;
39074;SDS011;24826;52.070;20.970;2023-02-01T15:01:32;6.53;;;2.65;;
39074;SDS011;24826;52.070;20.970;2023-02-01T15:04:19;11.40;;;3.15;;
39074;SDS011;24826;52.070;20.970;2023-02-01T15:07:07;8.60;;;2.70;;
39074;SDS011;24826;52.070;20.970;2023-02-01T15:09:56;10.15;;;2.92;;
39074;SDS011;24826;52.070;20.970;2023-02-01T15:12:42;5.85;;;2.50;;
39074;SDS011;24826;52.070;20.970;2023-02-01T15:15:28;7.88;;;2.83;;
39074;SDS011;24826;52.070;20.970;2023-02-01T15:18:16;7.22;;;2.97;;
39074;SDS011;24826;52.070;20.970;2023-02-01T15:21:03;7.93;;;3.25;;
39074;SDS011;24826;52.070;20.970;2023-02-01T15:23:49;11.50;;;3.58;;
39074;SDS011;24826;52.070;20.970;2023-02-01T15:26:34;10.30;;;3.28;;
39074;SDS011;24826;52.070;20.970;2023-02-01T15:29:20;12.40;;;3.65;;
39074;SDS011;24826;52.070;20.970;2023-02-01T15:32:05;9.68;;;3.78;;
39074;SDS011;24826;52.070;20.970;2023-02-01T15:34:50;9.35;;;3.50;;
39074;SDS011;24826;52.070;20.970;2023-02-01T15:37:34;9.57;;;3.55;;
39074;SDS011;24826;52.070;20.970;2023-02-01T15:40:19;7.53;;;3.25;;
39074;SDS011;24826;52.070;20.970;2023-02-01T15:43:11;12.35;;;3.80;;
39074;SDS011;24826;52.070;20.970;2023-02-01T15:45:57;7.75;;;3.33;;
39074;SDS011;24826;52.070;20.970;2023-02-01T15:51:30;8.55;;;3.95;;
39074;SDS011;24826;52.070;20.970;2023-02-01T15:54:22;10.07;;;4.28;;
39074;SDS011;24826;52.070;20.970;2023-02-01T15:57:20;10.45;;;4.10;;
39074;SDS011;24826;52.070;20.970;2023-02-01T16:09:13;7.40;;;3.05;;
39074;SDS011;24826;52.070;20.970;2023-02-01T16:11:59;7.70;;;3.03;;
39074;SDS011;24826;52.070;20.970;2023-02-01T16:14:45;8.73;;;3.58;;
39074;SDS011;24826;52.070;20.970;2023-02-01T16:17:29;9.45;;;3.47;;
39074;SDS011;24826;52.070;20.970;2023-02-01T16:20:13;9.52;;;4.05;;
39074;SDS011;24826;52.070;20.970;2023-02-01T16:22:58;8.77;;;3.90;;
39074;SDS011;24826;52.070;20.970;2023-02-01T16:25:43;6.57;;;3.03;;
39074;SDS011;24826;52.070;20.970;2023-02-01T16:28:27;13.45;;;3.17;;
39074;SDS011;24826;52.070;20.970;2023-02-01T16:31:12;8.15;;;3.13;;
39074;SDS011;24826;52.070;20.970;2023-02-01T16:34:04;8.27;;;3.85;;
39074;SDS011;24826;52.070;20.970;2023-02-01T16:36:50;9.07;;;3.90;;
39074;SDS011;24826;52.070;20.970;2023-02-01T16:39:35;7.80;;;3.30;;
39074;SDS011;24826;52.070;20.970;2023-02-01T16:42:20;10.25;;;3.60;;
39074;SDS011;24826;52.070;20.970;2023-02-01T16:45:05;9.65;;;3.30;;
39074;SDS011;24826;52.070;20.970;2023-02-01T16:47:51;9.02;;;3.17;;
39074;SDS011;24826;52.070;20.970;2023-02-01T16:50:38;9.80;;;3.10;;
39074;SDS011;24826;52.070;20.970;2023-02-01T16:53:23;8.65;;;3.00;;
39074;SDS011;24826;52.070;20.970;2023-02-01T16:56:15;7.57;;;2.75;;
39074;SDS011;24826;52.070;20.970;2023-02-01T16:59:02;9.30;;;3.20;;
39074;SDS011;24826;52.070;20.970;2023-02-01T17:01:46;7.40;;;3.25;;
39074;SDS011;24826;52.070;20.970;2023-02-01T17:04:31;6.22;;;3.03;;
39074;SDS011;24826;52.070;20.970;2023-02-01T17:07:15;9.18;;;3.70;;
39074;SDS011;24826;52.070;20.970;2023-02-01T17:10:01;10.25;;;3.90;;
39074;SDS011;24826;52.070;20.970;2023-02-01T17:12:47;10.98;;;4.38;;
39074;SDS011;24826;52.070;20.970;2023-02-01T17:15:32;10.40;;;3.95;;
39074;SDS011;24826;52.070;20.970;2023-02-01T17:18:18;9.93;;;4.25;;
39074;SDS011;24826;52.070;20.970;2023-02-01T17:21:03;11.00;;;4.30;;
39074;SDS011;24826;52.070;20.970;2023-02-01T17:23:49;10.80;;;4.05;;
39074;SDS011;24826;52.070;20.970;2023-02-01T17:26:36;11.15;;;3.72;;
39074;SDS011;24826;52.070;20.970;2023-02-01T17:29:20;10.40;;;4.03;;
39074;SDS011;24826;52.070;20.970;2023-02-01T17:32:05;12.68;;;4.65;;
39074;SDS011;24826;52.070;20.970;2023-02-01T17:34:57;10.30;;;3.97;;
39074;SDS011;24826;52.070;20.970;2023-02-01T17:37:41;10.82;;;4.20;;
39074;SDS011;24826;52.070;20.970;2023-02-01T17:40:26;9.38;;;4.03;;
39074;SDS011;24826;52.070;20.970;2023-02-01T17:43:14;8.85;;;3.97;;
39074;SDS011;24826;52.070;20.970;2023-02-01T17:46:13;10.27;;;4.00;;
39074;SDS011;24826;52.070;20.970;2023-02-01T17:48:59;8.90;;;3.70;;
39074;SDS011;24826;52.070;20.970;2023-02-01T17:51:44;12.15;;;4.57;;
39074;SDS011;24826;52.070;20.970;2023-02-01T17:54:28;12.32;;;4.90;;
39074;SDS011;24826;52.070;20.970;2023-02-01T17:57:13;10.93;;;4.40;;
39074;SDS011;24826;52.070;20.970;2023-02-01T17:59:57;11.98;;;4.68;;
39074;SDS011;24826;52.070;20.970;2023-02-01T18:02:41;14.60;;;4.72;;
39074;SDS011;24826;52.070;20.970;2023-02-01T18:05:37;14.73;;;4.55;;
39074;SDS011;24826;52.070;20.970;2023-02-01T18:08:24;12.93;;;5.13;;
39074;SDS011;24826;52.070;20.970;2023-02-01T18:11:13;10.52;;;4.20;;
39074;SDS011;24826;52.070;20.970;2023-02-01T18:13:59;9.48;;;4.30;;
39074;SDS011;24826;52.070;20.970;2023-02-01T18:16:43;9.75;;;4.15;;
39074;SDS011;24826;52.070;20.970;2023-02-01T18:19:28;12.40;;;4.82;;
39074;SDS011;24826;52.070;20.970;2023-02-01T18:22:17;12.40;;;3.83;;
39074;SDS011;24826;52.070;20.970;2023-02-01T18:27:57;12.88;;;3.95;;
39074;SDS011;24826;52.070;20.970;2023-02-01T18:30:41;9.13;;;3.92;;
39074;SDS011;24826;52.070;20.970;2023-02-01T18:33:27;10.20;;;4.20;;
39074;SDS011;24826;52.070;20.970;2023-02-01T18:36:11;8.00;;;3.55;;
39074;SDS011;24826;52.070;20.970;2023-02-01T18:38:56;14.20;;;4.25;;
39074;SDS011;24826;52.070;20.970;2023-02-01T18:41:47;10.30;;;3.42;;
39074;SDS011;24826;52.070;20.970;2023-02-01T18:44:32;11.70;;;3.83;;
39074;SDS011;24826;52.070;20.970;2023-02-01T18:47:16;8.65;;;3.75;;
39074;SDS011;24826;52.070;20.970;2023-02-01T18:50:01;10.88;;;3.80;;
39074;SDS011;24826;52.070;20.970;2023-02-01T18:52:45;14.27;;;4.00;;
39074;SDS011;24826;52.070;20.970;2023-02-01T18:55:30;8.77;;;3.47;;
39074;SDS011;24826;52.070;20.970;2023-02-01T18:58:17;9.82;;;3.05;;